^^
Your Local Weather - Clay, NY Station Historical Data
Daily Summary for October 31, 2017 Units:  English    Metric   Both
« Previous Day
Next Day »
Daily Weekly Monthly Yearly Custom
  High: Low: Average:
Temperature: 45.2 °F 38.9 °F 42.6 °F
Dew Point: 37.5 °F 30.2 °F 34.4 °F
Humidity: 86% 62% 73%
Wind Speed: 7.0mph 0.0mph 3.8mph
Wind Gust: 15.0mph - -
Wind- - SW
Pressure: 30.17 in 29.69 in -
Precipitation: 0.04 in    
Historical Graphs
 
 
Tabular Data for October 31, 2017
Time Temperature Dew Point Pressure Wind Wind Speed Wind Gust Humidity Rainfall Rate (Hourly) solar
00:02 44.2 °F 36.8 °F 29.69 in SW 7.0 mph 8.0 mph 75% 0.00 in 0 W/m2
00:08 44.1 °F 36.7 °F 29.69 in South 5.0 mph 9.0 mph 75% 0.00 in 0 W/m2
00:14 44.0 °F 36.9 °F 29.69 in SW 4.0 mph 10.0 mph 76% 0.00 in 0 W/m2
00:20 44.1 °F 36.7 °F 29.70 in SSW 3.0 mph 7.0 mph 75% 0.00 in 0 W/m2
00:26 44.1 °F 37.0 °F 29.70 in SW 4.0 mph 7.0 mph 76% 0.00 in 0 W/m2
00:32 44.0 °F 36.9 °F 29.70 in SW 4.0 mph 4.0 mph 76% 0.00 in 0 W/m2
00:38 44.1 °F 36.7 °F 29.70 in SSW 4.0 mph 6.0 mph 75% 0.00 in 0 W/m2
00:44 44.4 °F 36.6 °F 29.70 in WSW 4.0 mph 8.0 mph 74% 0.00 in 0 W/m2
00:50 44.5 °F 36.4 °F 29.70 in SW 5.0 mph 7.0 mph 73% 0.00 in 0 W/m2
00:56 44.6 °F 36.1 °F 29.70 in West 4.0 mph 7.0 mph 72% 0.00 in 0 W/m2
01:02 44.7 °F 35.9 °F 29.71 in SSW 5.0 mph 15.0 mph 71% 0.00 in 0 W/m2
01:06 44.5 °F 35.7 °F 29.71 in South 6.0 mph 15.0 mph 71% 0.00 in 0 W/m2
01:12 44.3 °F 35.5 °F 29.71 in West 5.0 mph 7.0 mph 71% 0.00 in 0 W/m2
01:18 44.2 °F 35.4 °F 29.71 in West 4.0 mph 9.0 mph 71% 0.00 in 0 W/m2
01:24 44.2 °F 35.0 °F 29.72 in West 5.0 mph 12.0 mph 70% 0.00 in 0 W/m2
01:32 44.0 °F 35.2 °F 29.72 in SW 5.0 mph 5.0 mph 71% 0.00 in 0 W/m2
01:38 43.9 °F 35.1 °F 29.72 in SSW 5.0 mph 5.0 mph 71% 0.00 in 0 W/m2
01:44 44.0 °F 35.2 °F 29.72 in WSW 5.0 mph 14.0 mph 71% 0.00 in 0 W/m2
01:50 43.9 °F 35.1 °F 29.73 in South 5.0 mph 7.0 mph 71% 0.00 in 0 W/m2
01:56 44.0 °F 35.2 °F 29.73 in SSW 5.0 mph 7.0 mph 71% 0.00 in 0 W/m2
02:02 44.1 °F 35.3 °F 29.73 in SSW 5.0 mph 5.0 mph 71% 0.00 in 0 W/m2
02:08 44.1 °F 35.3 °F 29.74 in SSW 4.0 mph 7.0 mph 71% 0.00 in 0 W/m2
02:14 44.2 °F 35.7 °F 29.74 in SW 4.0 mph 4.0 mph 72% 0.00 in 0 W/m2
02:20 44.1 °F 36.0 °F 29.74 in WSW 4.0 mph 4.0 mph 73% 0.00 in 0 W/m2
02:26 43.9 °F 36.1 °F 29.74 in WSW 4.0 mph 4.0 mph 74% 0.00 in 0 W/m2
02:32 43.9 °F 36.1 °F 29.74 in SSW 3.0 mph 4.0 mph 74% 0.00 in 0 W/m2
02:38 44.1 °F 36.3 °F 29.74 in SSW 4.0 mph 5.0 mph 74% 0.00 in 0 W/m2
02:44 44.2 °F 36.1 °F 29.75 in WSW 4.0 mph 6.0 mph 73% 0.00 in 0 W/m2
02:50 44.4 °F 35.9 °F 29.75 in SSW 4.0 mph 6.0 mph 72% 0.00 in 0 W/m2
02:56 44.5 °F 36.0 °F 29.75 in WSW 4.0 mph 6.0 mph 72% 0.00 in 0 W/m2
03:08 44.5 °F 35.7 °F 29.76 in WSW 5.0 mph 9.0 mph 71% 0.00 in 0 W/m2
03:14 44.4 °F 35.6 °F 29.75 in SW 4.0 mph 9.0 mph 71% 0.00 in 0 W/m2
03:20 44.5 °F 35.7 °F 29.75 in SSW 5.0 mph 5.0 mph 71% 0.00 in 0 W/m2
03:26 44.6 °F 35.8 °F 29.76 in SW 5.0 mph 5.0 mph 71% 0.00 in 0 W/m2
03:32 44.7 °F 35.9 °F 29.76 in SSW 4.0 mph 6.0 mph 71% 0.00 in 0 W/m2
03:38 44.9 °F 35.7 °F 29.76 in SSW 5.0 mph 6.0 mph 70% 0.00 in 0 W/m2
03:44 44.7 °F 36.2 °F 29.76 in WSW 5.0 mph 7.0 mph 72% 0.00 in 0 W/m2
03:50 44.1 °F 36.3 °F 29.77 in SW 5.0 mph 7.0 mph 74% 0.00 in 0 W/m2
03:56 43.7 °F 37.0 °F 29.76 in WSW 5.0 mph 7.0 mph 77% 0.00 in 0 W/m2
04:02 43.2 °F 36.8 °F 29.76 in SW 5.0 mph 9.0 mph 78% 0.00 in 0 W/m2
04:08 43.0 °F 37.3 °F 29.76 in SW 5.0 mph 9.0 mph 80% 0.00 in 0 W/m2
04:14 42.8 °F 37.4 °F 29.77 in SW 4.0 mph 5.0 mph 81% 0.00 in 0 W/m2
04:20 42.6 °F 37.5 °F 29.77 in SSW 3.0 mph 5.0 mph 82% 0.00 in 0 W/m2
04:26 42.5 °F 37.4 °F 29.78 in SSW 2.0 mph 5.0 mph 82% 0.00 in 0 W/m2
04:32 42.2 °F 37.1 °F 29.77 in SSW 1.0 mph 1.0 mph 82% 0.00 in 0 W/m2
04:38 42.0 °F 37.2 °F 29.78 in SSW 1.0 mph 2.0 mph 83% 0.00 in 0 W/m2
04:44 42.0 °F 37.2 °F 29.78 in SSW 1.0 mph 1.0 mph 83% 0.00 in 0 W/m2
04:50 42.0 °F 37.2 °F 29.78 in SSW 1.0 mph 1.0 mph 83% 0.00 in 0 W/m2
04:56 42.2 °F 37.1 °F 29.78 in SW 2.0 mph 3.0 mph 82% 0.00 in 0 W/m2
05:02 42.7 °F 37.0 °F 29.78 in WSW 3.0 mph 3.0 mph 80% 0.00 in 0 W/m2
05:08 43.1 °F 36.7 °F 29.78 in SW 3.0 mph 4.0 mph 78% 0.00 in 0 W/m2
05:14 43.5 °F 36.4 °F 29.78 in SW 3.0 mph 3.0 mph 76% 0.00 in 0 W/m2
05:20 43.7 °F 36.3 °F 29.79 in WSW 3.0 mph 3.0 mph 75% 0.00 in 0 W/m2
05:26 43.8 °F 36.0 °F 29.79 in West 3.0 mph 5.0 mph 74% 0.00 in 0 W/m2
05:32 44.1 °F 35.6 °F 29.79 in WSW 4.0 mph 5.0 mph 72% 0.00 in 0 W/m2
05:38 44.3 °F 35.5 °F 29.79 in WSW 4.0 mph 5.0 mph 71% 0.00 in 0 W/m2
05:44 44.6 °F 35.4 °F 29.80 in WSW 5.0 mph 6.0 mph 70% 0.00 in 0 W/m2
05:50 44.5 °F 35.3 °F 29.80 in SW 3.0 mph 3.0 mph 70% 0.00 in 0 W/m2
05:56 44.5 °F 35.3 °F 29.80 in SW 4.0 mph 6.0 mph 70% 0.00 in 0 W/m2
06:02 44.5 °F 35.7 °F 29.80 in South 4.0 mph 4.0 mph 71% 0.00 in 0 W/m2
06:08 44.5 °F 35.7 °F 29.81 in SW 4.0 mph 8.0 mph 71% 0.00 in 0 W/m2
06:14 44.5 °F 35.7 °F 29.81 in SSE 4.0 mph 8.0 mph 71% 0.00 in 0 W/m2
06:20 44.4 °F 35.9 °F 29.81 in SSW 4.0 mph 4.0 mph 72% 0.00 in 0 W/m2
06:26 44.3 °F 36.2 °F 29.81 in SSW 3.0 mph 4.0 mph 73% 0.00 in 0 W/m2
06:32 44.1 °F 36.0 °F 29.81 in SSW 4.0 mph 4.0 mph 73% 0.00 in 0 W/m2
06:38 44.1 °F 36.3 °F 29.82 in SSW 4.0 mph 4.0 mph 74% 0.00 in 0 W/m2
06:44 44.0 °F 36.2 °F 29.81 in SW 3.0 mph 4.0 mph 74% 0.00 in 0 W/m2
06:50 43.9 °F 36.5 °F 29.81 in SW 3.0 mph 4.0 mph 75% 0.00 in 0 W/m2
06:56 43.8 °F 36.7 °F 29.82 in SSW 5.0 mph 6.0 mph 76% 0.00 in 0 W/m2
07:02 43.6 °F 36.5 °F 29.82 in WSW 5.0 mph 9.0 mph 76% 0.00 in 0 W/m2
07:08 43.4 °F 36.7 °F 29.82 in SSW 5.0 mph 9.0 mph 77% 0.00 in 0 W/m2
07:14 43.3 °F 36.9 °F 29.83 in SSW 5.0 mph 7.0 mph 78% 0.00 in 0 W/m2
07:20 43.3 °F 36.9 °F 29.82 in SW 5.0 mph 5.0 mph 78% 0.00 in 0 W/m2
07:26 43.2 °F 36.5 °F 29.83 in SW 5.0 mph 6.0 mph 77% 0.00 in 0 W/m2
07:32 43.0 °F 36.0 °F 29.83 in SW 6.0 mph 6.0 mph 76% 0.00 in 0 W/m2
07:38 42.7 °F 32.9 °F 29.84 in West 4.0 mph 6.0 mph 68% 0.00 in 0 W/m2
07:44 42.6 °F 32.4 °F 29.84 in South 5.0 mph 8.0 mph 67% 0.00 in 0 W/m2
07:50 42.0 °F 32.9 °F 29.85 in SSW 6.0 mph 6.0 mph 70% 0.00 in 0 W/m2
07:56 41.0 °F 33.0 °F 29.86 in SSW 6.0 mph 6.0 mph 73% 0.00 in 0 W/m2
08:02 40.2 °F 33.2 °F 29.86 in WSW 5.0 mph 9.0 mph 76% 0.00 in 0 W/m2
08:08 39.8 °F 33.5 °F 29.86 in WSW 4.0 mph 9.0 mph 78% 0.00 in 5 W/m2
08:14 39.4 °F 33.7 °F 29.87 in WSW 4.0 mph 7.0 mph 80% 0.00 in 7 W/m2
08:20 39.1 °F 34.1 °F 29.87 in WSW 4.0 mph 4.0 mph 82% 0.00 in 9 W/m2
08:26 38.9 °F 34.2 °F 29.87 in West 4.0 mph 6.0 mph 83% 0.00 in 12 W/m2
08:32 38.9 °F 34.2 °F 29.87 in WSW 5.0 mph 7.0 mph 83% 0.00 in 12 W/m2
08:38 39.0 °F 34.3 °F 29.87 in SSW 5.0 mph 9.0 mph 83% 0.00 in 14 W/m2
08:44 39.1 °F 34.4 °F 29.87 in SSW 5.0 mph 6.0 mph 83% 0.00 in 14 W/m2
08:50 39.1 °F 34.4 °F 29.87 in SSW 4.0 mph 7.0 mph 83% 0.00 in 19 W/m2
08:56 39.1 °F 34.4 °F 29.87 in SW 4.0 mph 9.0 mph 83% 0.00 in 21 W/m2
09:02 39.1 °F 34.4 °F 29.87 in SW 5.0 mph 5.0 mph 83% 0.00 in 21 W/m2
09:08 39.0 °F 34.3 °F 29.88 in SSW 5.0 mph 6.0 mph 83% 0.00 in 19 W/m2
09:14 39.2 °F 34.2 °F 29.88 in WSW 6.0 mph 10.0 mph 82% 0.00 in 25 W/m2
09:20 39.4 °F 34.1 °F 29.88 in SSW 5.0 mph 5.0 mph 81% 0.00 in 30 W/m2
09:26 39.5 °F 33.8 °F 29.89 in SW 5.0 mph 5.0 mph 80% 0.00 in 26 W/m2
09:32 39.5 °F 33.8 °F 29.89 in SW 5.0 mph 5.0 mph 80% 0.00 in 19 W/m2
09:38 39.4 °F 33.7 °F 29.89 in WSW 5.0 mph 7.0 mph 80% 0.00 in 33 W/m2
09:44 39.3 °F 34.0 °F 29.89 in SW 4.0 mph 5.0 mph 81% 0.00 in 37 W/m2
09:50 39.3 °F 34.0 °F 29.90 in SW 5.0 mph 7.0 mph 81% 0.00 in 49 W/m2
09:56 39.3 °F 34.0 °F 29.90 in SW 6.0 mph 10.0 mph 81% 0.00 in 46 W/m2
10:02 39.5 °F 33.8 °F 29.90 in WSW 5.0 mph 5.0 mph 80% 0.00 in 35 W/m2
10:08 39.6 °F 33.3 °F 29.90 in WSW 4.0 mph 6.0 mph 78% 0.00 in 79 W/m2
10:14 40.0 °F 33.4 °F 29.90 in SSW 5.0 mph 10.0 mph 77% 0.00 in 69 W/m2
10:20 40.0 °F 34.0 °F 29.91 in SW 5.0 mph 5.0 mph 79% 0.00 in 42 W/m2
10:26 40.0 °F 34.6 °F 29.91 in SW 4.0 mph 5.0 mph 81% 0.00 in 39 W/m2
10:32 40.0 °F 34.9 °F 29.92 in SSW 4.0 mph 6.0 mph 82% 0.00 in 37 W/m2
10:38 40.1 °F 35.0 °F 29.92 in SSW 4.0 mph 7.0 mph 82% 0.00 in 28 W/m2
10:44 40.1 °F 35.0 °F 29.92 in WSW 5.0 mph 5.0 mph 82% 0.00 in 30 W/m2
10:50 39.9 °F 35.2 °F 29.92 in SW 6.0 mph 7.0 mph 83% 0.00 in 65 W/m2
10:56 39.7 °F 35.6 °F 29.93 in South 5.0 mph 10.0 mph 85% 0.00 in 56 W/m2
11:02 39.8 °F 35.7 °F 29.93 in WSW 5.0 mph 10.0 mph 85% 0.00 in 83 W/m2
11:08 40.1 °F 36.0 °F 29.93 in SW 6.0 mph 10.0 mph 85% 0.00 in 118 W/m2
11:14 40.4 °F 36.2 °F 29.93 in SW 5.0 mph 6.0 mph 85% 0.00 in 128 W/m2
11:20 40.7 °F 36.8 °F 29.93 in SW 4.0 mph 4.0 mph 86% 0.00 in 121 W/m2
11:26 40.9 °F 36.7 °F 29.93 in SSW 5.0 mph 7.0 mph 85% 0.00 in 137 W/m2
11:32 41.2 °F 37.0 °F 29.93 in SSW 5.0 mph 5.0 mph 85% 0.00 in 132 W/m2
11:38 41.4 °F 37.2 °F 29.94 in South 5.0 mph 11.0 mph 85% 0.00 in 118 W/m2
11:44 41.6 °F 36.8 °F 29.95 in WSW 6.0 mph 7.0 mph 83% 0.00 in 128 W/m2
11:50 41.9 °F 36.8 °F 29.95 in South 5.0 mph 8.0 mph 82% 0.00 in 132 W/m2
11:56 42.2 °F 36.8 °F 29.95 in SSW 5.0 mph 8.0 mph 81% 0.00 in 142 W/m2
12:02 42.4 °F 36.7 °F 29.95 in SSW 5.0 mph 5.0 mph 80% 0.00 in 116 W/m2
12:08 42.3 °F 36.3 °F 29.95 in SSW 6.0 mph 7.0 mph 79% 0.00 in 132 W/m2
12:14 42.3 °F 36.6 °F 29.95 in South 6.0 mph 6.0 mph 80% 0.00 in 132 W/m2
12:20 42.4 °F 36.7 °F 29.95 in SW 4.0 mph 6.0 mph 80% 0.00 in 167 W/m2
12:26 42.6 °F 36.9 °F 29.96 in SSW 4.0 mph 6.0 mph 80% 0.00 in 169 W/m2
12:32 42.8 °F 37.1 °F 29.96 in SSW 4.0 mph 7.0 mph 80% 0.00 in 148 W/m2
12:38 42.9 °F 36.8 °F 29.96 in SW 4.0 mph 7.0 mph 79% 0.00 in 142 W/m2
12:44 43.1 °F 37.0 °F 29.96 in SW 4.0 mph 8.0 mph 79% 0.00 in 163 W/m2
12:50 43.4 °F 37.0 °F 29.96 in WSW 3.0 mph 3.0 mph 78% 0.00 in 257 W/m2
12:56 44.0 °F 36.9 °F 29.96 in SW 4.0 mph 9.0 mph 76% 0.00 in 221 W/m2
13:02 44.1 °F 36.0 °F 29.97 in SW 6.0 mph 9.0 mph 73% 0.00 in 171 W/m2
13:08 44.0 °F 35.6 °F 29.97 in WSW 6.0 mph 9.0 mph 72% 0.00 in 125 W/m2
13:14 43.8 °F 35.0 °F 29.97 in WSW 6.0 mph 14.0 mph 71% 0.00 in 142 W/m2
13:20 43.8 °F 35.4 °F 29.97 in SW 6.0 mph 6.0 mph 72% 0.00 in 160 W/m2
13:26 43.9 °F 35.5 °F 29.97 in SW 5.0 mph 6.0 mph 72% 0.00 in 178 W/m2
13:32 44.0 °F 35.2 °F 29.97 in West 5.0 mph 7.0 mph 71% 0.00 in 155 W/m2
13:38 43.9 °F 34.7 °F 29.97 in SW 7.0 mph 14.0 mph 70% 0.00 in 221 W/m2
13:44 44.2 °F 35.7 °F 29.97 in SSW 6.0 mph 7.0 mph 72% 0.00 in 220 W/m2
13:50 44.6 °F 35.8 °F 29.97 in WSW 5.0 mph 5.0 mph 71% 0.00 in 336 W/m2
13:56 44.9 °F 35.3 °F 29.97 in WSW 6.0 mph 13.0 mph 69% 0.00 in 204 W/m2
14:02 44.6 °F 35.4 °F 29.97 in SW 6.0 mph 8.0 mph 70% 0.00 in 179 W/m2
14:08 44.6 °F 35.8 °F 29.97 in WNW 6.0 mph 9.0 mph 71% 0.00 in 211 W/m2
14:14 45.2 °F 36.4 °F 29.98 in South 5.0 mph 9.0 mph 71% 0.00 in 346 W/m2
14:20 45.0 °F 35.8 °F 29.97 in SW 5.0 mph 5.0 mph 70% 0.00 in 188 W/m2
14:26 45.1 °F 35.9 °F 29.97 in SSW 5.0 mph 6.0 mph 70% 0.00 in 169 W/m2
14:32 45.1 °F 35.2 °F 29.97 in SW 5.0 mph 5.0 mph 68% 0.00 in 139 W/m2
14:38 45.1 °F 35.2 °F 29.98 in SSW 5.0 mph 7.0 mph 68% 0.00 in 91 W/m2
14:44 45.0 °F 35.1 °F 29.98 in WSW 5.0 mph 5.0 mph 68% 0.00 in 72 W/m2
14:50 44.9 °F 33.8 °F 29.98 in SW 6.0 mph 9.0 mph 65% 0.00 in 77 W/m2
14:56 44.8 °F 33.4 °F 29.98 in West 7.0 mph 9.0 mph 64% 0.00 in 79 W/m2
15:02 44.8 °F 34.1 °F 29.99 in WSW 6.0 mph 6.0 mph 66% 0.00 in 69 W/m2
15:08 44.7 °F 33.6 °F 30.00 in WSW 5.0 mph 6.0 mph 65% 0.00 in 67 W/m2
15:14 44.7 °F 34.0 °F 30.00 in SSW 5.0 mph 6.0 mph 66% 0.00 in 77 W/m2
15:20 44.7 °F 34.0 °F 30.00 in West 4.0 mph 4.0 mph 66% 0.00 in 118 W/m2
15:26 44.9 °F 33.8 °F 30.00 in West 5.0 mph 10.0 mph 65% 0.00 in 102 W/m2
15:32 44.6 °F 33.9 °F 30.00 in West 5.0 mph 6.0 mph 66% 0.00 in 79 W/m2
15:38 44.4 °F 33.7 °F 30.01 in West 6.0 mph 11.0 mph 66% 0.00 in 86 W/m2
15:44 44.3 °F 34.0 °F 30.01 in WSW 6.0 mph 9.0 mph 67% 0.00 in 79 W/m2
15:50 44.2 °F 33.6 °F 30.01 in SSW 5.0 mph 5.0 mph 66% 0.00 in 77 W/m2
15:56 44.1 °F 33.8 °F 30.01 in WSW 5.0 mph 8.0 mph 67% 0.00 in 74 W/m2
16:02 44.0 °F 33.7 °F 30.01 in WNW 4.0 mph 4.0 mph 67% 0.00 in 105 W/m2
16:08 44.0 °F 34.1 °F 30.02 in West 4.0 mph 9.0 mph 68% 0.00 in 88 W/m2
16:14 44.0 °F 34.1 °F 30.02 in West 5.0 mph 7.0 mph 68% 0.00 in 105 W/m2
16:20 43.7 °F 34.2 °F 30.03 in WNW 4.0 mph 4.0 mph 69% 0.00 in 72 W/m2
16:26 43.4 °F 34.6 °F 30.03 in West 4.0 mph 5.0 mph 71% 0.00 in 42 W/m2
16:32 43.1 °F 34.3 °F 30.03 in WSW 3.0 mph 3.0 mph 71% 0.00 in 30 W/m2
16:38 42.9 °F 34.5 °F 30.04 in WSW 3.0 mph 6.0 mph 72% 0.00 in 33 W/m2
16:44 42.8 °F 34.7 °F 30.04 in WSW 3.0 mph 5.0 mph 73% 0.00 in 35 W/m2
16:50 42.9 °F 34.5 °F 30.04 in WSW 3.0 mph 6.0 mph 72% 0.00 in 26 W/m2
16:56 43.0 °F 34.2 °F 30.05 in West 3.0 mph 6.0 mph 71% 0.00 in 28 W/m2
17:02 43.0 °F 34.2 °F 30.05 in West 3.0 mph 6.0 mph 71% 0.00 in 21 W/m2
17:08 42.9 °F 34.5 °F 30.06 in South 3.0 mph 6.0 mph 72% 0.00 in 18 W/m2
17:14 42.7 °F 33.9 °F 30.06 in WSW 3.0 mph 3.0 mph 71% 0.00 in 14 W/m2
17:20 42.8 °F 34.0 °F 30.06 in SW 2.0 mph 5.0 mph 71% 0.00 in 14 W/m2
17:26 42.8 °F 33.7 °F 30.06 in SW 2.0 mph 5.0 mph 70% 0.00 in 11 W/m2
17:32 42.9 °F 33.4 °F 30.06 in SSW 3.0 mph 5.0 mph 69% 0.00 in 11 W/m2
17:38 43.0 °F 33.2 °F 30.06 in WSW 4.0 mph 5.0 mph 68% 0.00 in 9 W/m2
17:44 43.1 °F 32.9 °F 30.06 in WSW 3.0 mph 4.0 mph 67% 0.00 in 5 W/m2
17:50 43.1 °F 32.9 °F 30.06 in WSW 3.0 mph 6.0 mph 67% 0.00 in 0 W/m2
17:56 43.1 °F 32.5 °F 30.06 in WSW 2.0 mph 6.0 mph 66% 0.00 in 0 W/m2
18:02 43.1 °F 32.1 °F 30.06 in WSW 2.0 mph 6.0 mph 65% 0.00 in 0 W/m2
18:08 43.2 °F 32.2 °F 30.07 in SW 3.0 mph 6.0 mph 65% 0.00 in 0 W/m2
18:14 43.2 °F 31.8 °F 30.07 in WSW 3.0 mph 8.0 mph 64% 0.00 in 0 W/m2
18:20 43.2 °F 31.8 °F 30.07 in West 4.0 mph 4.0 mph 64% 0.00 in 0 W/m2
18:26 43.3 °F 31.1 °F 30.08 in WSW 4.0 mph 6.0 mph 62% 0.00 in 0 W/m2
18:32 43.2 °F 31.4 °F 30.08 in SW 4.0 mph 4.0 mph 63% 0.00 in 0 W/m2
18:38 43.1 °F 31.4 °F 30.08 in SW 3.0 mph 4.0 mph 63% 0.00 in 0 W/m2
18:44 43.0 °F 31.3 °F 30.09 in SW 3.0 mph 4.0 mph 63% 0.00 in 0 W/m2
18:50 43.0 °F 31.3 °F 30.09 in SW 3.0 mph 10.0 mph 63% 0.00 in 0 W/m2
18:56 42.9 °F 31.2 °F 30.09 in West 3.0 mph 10.0 mph 63% 0.00 in 0 W/m2
19:02 42.9 °F 31.6 °F 30.09 in SW 3.0 mph 4.0 mph 64% 0.00 in 0 W/m2
19:08 42.8 °F 31.5 °F 30.09 in WSW 4.0 mph 6.0 mph 64% 0.00 in 0 W/m2
19:14 42.7 °F 31.4 °F 30.09 in West 4.0 mph 4.0 mph 64% 0.00 in 0 W/m2
19:20 42.8 °F 31.1 °F 30.09 in SW 3.0 mph 3.0 mph 63% 0.00 in 0 W/m2
19:26 42.7 °F 31.0 °F 30.09 in SW 4.0 mph 9.0 mph 63% 0.00 in 0 W/m2
19:32 42.8 °F 31.1 °F 30.10 in WSW 4.0 mph 4.0 mph 63% 0.00 in 0 W/m2
19:38 42.7 °F 31.0 °F 30.10 in South 4.0 mph 6.0 mph 63% 0.00 in 0 W/m2
19:44 42.7 °F 31.0 °F 30.10 in WSW 4.0 mph 4.0 mph 63% 0.00 in 0 W/m2
19:50 42.6 °F 31.3 °F 30.10 in WSW 3.0 mph 3.0 mph 64% 0.00 in 0 W/m2
19:56 42.4 °F 30.7 °F 30.10 in WNW 2.0 mph 5.0 mph 63% 0.00 in 0 W/m2
20:02 42.2 °F 30.5 °F 30.09 in SW 3.0 mph 5.0 mph 63% 0.00 in 0 W/m2
20:08 42.2 °F 30.5 °F 30.10 in South 3.0 mph 7.0 mph 63% 0.00 in 0 W/m2
20:14 42.1 °F 30.4 °F 30.10 in SSW 3.0 mph 4.0 mph 63% 0.00 in 0 W/m2
20:20 42.0 °F 30.3 °F 30.11 in SW 3.0 mph 3.0 mph 63% 0.00 in 0 W/m2
20:26 41.9 °F 30.2 °F 30.11 in WSW 3.0 mph 5.0 mph 63% 0.00 in 0 W/m2
20:32 42.0 °F 30.3 °F 30.11 in SW 3.0 mph 3.0 mph 63% 0.00 in 0 W/m2
20:38 42.0 °F 30.3 °F 30.11 in WSW 3.0 mph 11.0 mph 63% 0.00 in 0 W/m2
20:44 42.0 °F 30.7 °F 30.11 in SW 3.0 mph 3.0 mph 64% 0.00 in 0 W/m2
20:50 42.2 °F 30.9 °F 30.11 in SW 3.0 mph 3.0 mph 64% 0.00 in 0 W/m2
20:56 42.2 °F 30.9 °F 30.12 in WSW 3.0 mph 4.0 mph 64% 0.00 in 0 W/m2
21:02 42.2 °F 30.9 °F 30.12 in West 3.0 mph 5.0 mph 64% 0.00 in 0 W/m2
21:08 42.1 °F 30.8 °F 30.12 in West 3.0 mph 5.0 mph 64% 0.00 in 0 W/m2
21:14 41.8 °F 30.9 °F 30.13 in West 2.0 mph 2.0 mph 65% 0.00 in 0 W/m2
21:20 41.5 °F 31.0 °F 30.13 in WSW 1.0 mph 3.0 mph 66% 0.00 in 0 W/m2
21:26 41.2 °F 31.1 °F 30.14 in WSW 1.0 mph 3.0 mph 67% 0.00 in 0 W/m2
21:32 41.1 °F 31.3 °F 30.14 in WSW 1.0 mph 3.0 mph 68% 0.00 in 0 W/m2
21:38 40.8 °F 31.4 °F 30.14 in WSW 1.0 mph 3.0 mph 69% 0.00 in 0 W/m2
21:44 40.7 °F 31.7 °F 30.14 in WSW 1.0 mph 2.0 mph 70% 0.00 in 0 W/m2
21:50 40.5 °F 31.5 °F 30.14 in Calm   2.0 mph 70% 0.00 in 0 W/m2
21:56 40.4 °F 31.7 °F 30.14 in Calm   2.0 mph 71% 0.00 in 0 W/m2
22:02 40.3 °F 32.0 °F 30.14 in SW 1.0 mph 1.0 mph 72% 0.00 in 0 W/m2
22:08 40.3 °F 32.0 °F 30.15 in SW 1.0 mph 3.0 mph 72% 0.00 in 0 W/m2
22:14 40.3 °F 32.0 °F 30.15 in SW 1.0 mph 2.0 mph 72% 0.00 in 0 W/m2
22:20 40.3 °F 32.0 °F 30.15 in WSW 1.0 mph 1.0 mph 72% 0.00 in 0 W/m2
22:26 40.3 °F 32.0 °F 30.15 in WSW 1.0 mph 1.0 mph 72% 0.00 in 0 W/m2
22:32 40.3 °F 32.0 °F 30.15 in WSW 1.0 mph 2.0 mph 72% 0.00 in 0 W/m2
22:38 40.3 °F 32.0 °F 30.15 in WSW 1.0 mph 4.0 mph 72% 0.00 in 0 W/m2
22:44 40.2 °F 32.2 °F 30.15 in WSW 1.0 mph 1.0 mph 73% 0.00 in 0 W/m2
22:50 40.2 °F 32.2 °F 30.15 in WSW 1.0 mph 1.0 mph 73% 0.00 in 0 W/m2
22:56 40.2 °F 32.2 °F 30.15 in WSW 1.0 mph 1.0 mph 73% 0.00 in 0 W/m2
23:02 40.0 °F 32.0 °F 30.16 in WSW 1.0 mph 4.0 mph 73% 0.00 in 0 W/m2
23:08 40.1 °F 32.5 °F 30.16 in WSW 1.0 mph 4.0 mph 74% 0.00 in 0 W/m2
23:22 40.0 °F 32.7 °F 30.16 in Calm     75% 0.00 in 0 W/m2
23:24 40.0 °F 32.7 °F 30.16 in Calm     75% 0.00 in 0 W/m2
23:28 40.1 °F 32.8 °F 30.17 in Calm     75% 0.00 in 0 W/m2
23:32 40.1 °F 32.8 °F 30.17 in Calm     75% 0.00 in 0 W/m2
23:34 40.0 °F 32.7 °F 30.17 in Calm     75% 0.00 in 0 W/m2
23:40 39.9 °F 32.9 °F 30.17 in Calm   2.0 mph 76% 0.00 in 0 W/m2
23:46 40.2 °F 32.9 °F 30.17 in WSW 1.0 mph 2.0 mph 75% 0.00 in 0 W/m2
23:52 40.8 °F 32.8 °F 30.17 in WSW 1.0 mph 2.0 mph 73% 0.00 in 0 W/m2
23:58 41.0 °F 32.7 °F 30.17 in WSW 1.0 mph 2.0 mph 72% 0.00 in 0 W/m2
Country Meadow, Clay, NY, USA
Compliments of Weather Underground - 2 mb